Aérodrome :
LOGIN :

S'inscrire | Disclaimer

   EN    FR    IT 

 










Légende :    VFR   VFR Marginal   IFR   IFR Intensif   IFR Très Intensif
Visi : 
Plafond : 
>= 8 km
>= 3000ft
5 à 8 km
1000 à 3000 ft
1500m à 5 km
500 à 1000 ft
800 à 1500m
200 à 500 ft
< 800m
< 200 ft
Symboles :   Orages  Brouillard  Fortes neiges  Fortes précipitations  Vent > 20 kt
SIGMETs :   Divers  Orages  Givrage  Turbulence  Onde Orograph.  Cendres Volcan.







- Altitude de l'aérodrome : 142 ft
- Code IATA : FLR


LIRQ - Firenze Amerigo Vespucci

DERNIER METAR :
  • 170120Z 00000KT CAVOK 08/07 Q1026

METARs EXPIRÉS :
  • 170050Z 04002KT CAVOK 09/08 Q1027
  • 170020Z VRB01KT CAVOK 08/06 Q1027
  • 162350Z 04002KT CAVOK 09/08 Q1027
  • 162320Z VRB01KT CAVOK 09/07 Q1027
  • 162250Z VRB02KT CAVOK 10/07 Q1027

TAF TAF LIRQ
Valide du 17 à 00h jusqu'au 18 à 00h UTC


162300Z 1700/1724 VRB06KT CAVOK
TEMPO 1700/1706 3000 BR
Pas de NOTAMs connus pour ce terrain.



MET'MAP, la Météo Aéronautique d'un coup d'oeil ! - Copyright ORBIFLY Décembre 2007 - Disclaimer

ORBIFLY MET'MAP TEAM :

Programmation & Développement : Alexandra Zaïnal
Conception & Développement : Baudouin d'Aumeries
Co-Programmation & Développement : Marc-Olivier Méhu
Soutien technique & logistique : Manuel Goepfert

Contact : metmap@orbifly.com




SOURCES & CREDITS :

   NOAA